^^
Meteo Knjazevac Station Historical Data
Daily Summary for May 13, 2021 Units:  Metric    English   Both
Daily Weekly Monthly Yearly Custom
  High: Low: Average:
Temperature: 20.8 °C 15.5 °C 17.4 °C
Dew Point: 15.9 °C 13.6 °C 14.6 °C
Humidity: 90% 73% 84%
Wind Speed: 3.2km/h 0km/h 1km/h
Wind Gust: 8km/h - -
Wind- - WNW
Pressure: 1017.2 hPa 1016.5 hPa -
Precipitation: 0 mm    
Historical Graphs
 
 
Tabular Data for May 13, 2021
Time Temperature Dew Point Pressure Wind Wind Speed Wind Gust Humidity Rainfall Rate (Hourly) solar Conditions
00:00 20.8 °C 15.8 °C 1016.8 hPa Calm   4.8 km/h 73% 0 mm 0 W/m2
00:10 20.7 °C 15.9 °C 1016.8 hPa Calm   4.8 km/h 74% 0 mm 0 W/m2
00:20 20.4 °C 15.6 °C 1016.8 hPa Calm   3.2 km/h 74% 0 mm 0 W/m2
00:30 20.3 °C 15.5 °C 1016.5 hPa North 1.6 km/h 3.2 km/h 74% 0 mm 0 W/m2
00:40 20.1 °C 15.5 °C 1016.5 hPa Calm   3.2 km/h 75% 0 mm 0 W/m2
00:50 19.7 °C 15.6 °C 1016.5 hPa Calm   3.2 km/h 77% 0 mm 0 W/m2
01:00 19.4 °C 15.4 °C 1016.5 hPa Calm   1.6 km/h 78% 0 mm 0 W/m2
01:10 19.2 °C 15.4 °C 1016.5 hPa WNW 3.2 km/h 4.8 km/h 79% 0 mm 0 W/m2
01:20 18.9 °C 15.2 °C 1016.5 hPa West 1.6 km/h 4.8 km/h 79% 0 mm 0 W/m2
01:30 18.7 °C 15 °C 1016.5 hPa West 1.6 km/h 8 km/h 79% 0 mm 0 W/m2
01:40 18.6 °C 15.1 °C 1016.5 hPa Calm   3.2 km/h 80% 0 mm 0 W/m2
01:50 18.4 °C 14.8 °C 1016.5 hPa Calm   3.2 km/h 80% 0 mm 0 W/m2
02:00 18.1 °C 14.8 °C 1016.8 hPa WSW 3.2 km/h 4.8 km/h 81% 0 mm 0 W/m2
02:10 18 °C 14.7 °C 1016.8 hPa NW 1.6 km/h 4.8 km/h 81% 0 mm 0 W/m2
02:20 17.9 °C 14.8 °C 1016.8 hPa West 3.2 km/h 4.8 km/h 82% 0 mm 0 W/m2
02:30 17.9 °C 14.6 °C 1016.8 hPa Calm   4.8 km/h 81% 0 mm 0 W/m2
02:40 17.8 °C 14.5 °C 1016.8 hPa Calm   3.2 km/h 81% 0 mm 0 W/m2
02:50 17.6 °C 14.7 °C 1016.8 hPa Calm   3.2 km/h 83% 0 mm 0 W/m2
03:00 17.4 °C 14.5 °C 1016.8 hPa Calm   1.6 km/h 83% 0 mm 0 W/m2
03:10 17.3 °C 14.6 °C 1016.8 hPa Calm   3.2 km/h 84% 0 mm 0 W/m2
03:20 17.3 °C 14.6 °C 1016.8 hPa Calm   3.2 km/h 84% 0 mm 0 W/m2
03:30 17 °C 14.3 °C 1016.8 hPa Calm   3.2 km/h 84% 0 mm 0 W/m2
03:40 16.8 °C 14.3 °C 1016.8 hPa West 1.6 km/h 4.8 km/h 85% 0 mm 0 W/m2
03:50 16.6 °C 14.1 °C 1017.2 hPa West 1.6 km/h 3.2 km/h 85% 0 mm 0 W/m2
04:00 16.5 °C 13.9 °C 1016.8 hPa West 1.6 km/h 3.2 km/h 85% 0 mm 0 W/m2
04:10 16.2 °C 13.8 °C 1016.8 hPa West 1.6 km/h 4.8 km/h 86% 0 mm 0 W/m2
04:20 16.2 °C 13.8 °C 1016.8 hPa West 1.6 km/h 8 km/h 86% 0 mm 0 W/m2
04:30 16.2 °C 13.8 °C 1017.2 hPa West 3.2 km/h 8 km/h 86% 0 mm 0 W/m2
04:40 16.1 °C 14.1 °C 1017.2 hPa West 3.2 km/h 6.4 km/h 88% 0 mm 0 W/m2
04:50 16.1 °C 14.1 °C 1017.2 hPa West 1.6 km/h 4.8 km/h 88% 0 mm 0 W/m2
05:00 15.9 °C 13.9 °C 1016.8 hPa Calm   3.2 km/h 88% 0 mm 0 W/m2
05:10 15.8 °C 13.8 °C 1016.8 hPa West 1.6 km/h 3.2 km/h 88% 0 mm 7 W/m2
05:20 15.7 °C 13.7 °C 1016.8 hPa West 1.6 km/h 3.2 km/h 88% 0 mm 13 W/m2
05:30 15.6 °C 13.8 °C 1016.8 hPa Calm   3.2 km/h 89% 0 mm 23 W/m2
05:40 15.7 °C 13.9 °C 1016.8 hPa Calm   1.6 km/h 89% 0 mm 32 W/m2
05:50 15.6 °C 13.6 °C 1016.8 hPa Calm   3.2 km/h 88% 0 mm 43 W/m2
06:00 15.5 °C 13.7 °C 1016.8 hPa NW 1.6 km/h 3.2 km/h 89% 0 mm 56 W/m2
06:10 15.6 °C 13.9 °C 1016.8 hPa WNW 1.6 km/h 4.8 km/h 90% 0 mm 69 W/m2
06:20 15.8 °C 14.2 °C 1016.8 hPa WNW 1.6 km/h 3.2 km/h 90% 0 mm 112 W/m2
06:30 15.9 °C 14.1 °C 1016.8 hPa WNW 1.6 km/h 3.2 km/h 89% 0 mm 137 W/m2
06:40 16.1 °C 14.4 °C 1016.8 hPa Calm   3.2 km/h 90% 0 mm 166 W/m2
06:50 16.3 °C 14.5 °C 1016.8 hPa Calm   3.2 km/h 89% 0 mm 194 W/m2
07:00 16.6 °C 14.9 °C 1016.8 hPa NW 1.6 km/h 6.4 km/h 90% 0 mm 224 W/m2
07:10 16.9 °C 15.1 °C 1016.8 hPa NW 1.6 km/h 6.4 km/h 89% 0 mm 254 W/m2
07:20 17.3 °C 15.3 °C 1016.8 hPa NW 1.6 km/h 4.8 km/h 88% 0 mm 289 W/m2
Knjazevac, Serbia
Compliments of Weather Underground - 2 mb